Time;durP1;ratioP1;P1;durP2;ratioP2;P2;SDS_P1;SDS_P2;PMS_P1;PMS_P2;Temp;Humidity;BMP_temperature;BMP_pressure;BME280_temperature;BME280_humidity;BME280_pressure;Samples;Min_cycle;Max_cycle;Signal;HPM_P1;HPM_P2
2022/05/24 00:00:28;;;;;;;10.32;6.85;;;;;;;12.34;60.01;99704.47;4957893;28;20322;-76
2022/05/24 00:02:54;;;;;;;15.55;7.93;;;;;;;12.59;59.03;99706.31;4953703;28;20644;-75
2022/05/24 00:05:21;;;;;;;13.82;8.23;;;;;;;12.10;60.57;99712.16;4957149;28;20031;-76
2022/05/24 00:07:47;;;;;;;17.77;8.98;;;;;;;11.82;60.83;99720.94;4956144;28;20059;-74
2022/05/24 00:10:16;;;;;;;15.30;8.73;;;;;;;11.59;61.08;99714.50;4939603;28;20111;-77
2022/05/24 00:12:42;;;;;;;14.80;9.43;;;;;;;11.78;61.10;99724.72;4950685;28;20039;-77
2022/05/24 00:15:23;;;;;;;18.45;9.25;;;;;;;11.89;60.60;99724.88;4940548;28;20278;-76
2022/05/24 00:17:55;;;;;;;14.30;9.82;;;;;;;11.72;60.92;99733.75;4956827;28;20641;-77
2022/05/24 00:20:24;;;;;;;15.10;9.10;;;;;;;12.23;59.43;99733.16;4953400;28;20097;-75
2022/05/24 00:22:49;;;;;;;14.70;9.70;;;;;;;11.94;59.96;99732.44;4940671;28;20136;-76
2022/05/24 00:25:15;;;;;;;11.85;8.93;;;;;;;12.06;59.45;99745.56;4952877;28;20031;-76
2022/05/24 00:27:41;;;;;;;15.68;9.75;;;;;;;11.91;59.56;99745.69;4949913;28;20101;-76
2022/05/24 00:30:07;;;;;;;14.75;9.18;;;;;;;11.73;60.18;99740.69;4938042;28;20037;-76
2022/05/24 00:32:32;;;;;;;15.77;9.23;;;;;;;11.86;59.60;99741.59;4952999;28;20039;-76
2022/05/24 00:34:58;;;;;;;13.77;8.38;;;;;;;11.81;59.47;99742.84;4966362;28;20030;-75
2022/05/24 00:37:27;;;;;;;10.95;8.20;;;;;;;11.92;59.47;99743.00;4967572;28;20049;-76
2022/05/24 00:39:52;;;;;;;12.43;8.73;;;;;;;11.55;60.38;99752.28;4953006;28;20035;-77
2022/05/24 00:42:22;;;;;;;15.50;9.02;;;;;;;12.02;59.07;99751.09;4958631;28;20043;-78
2022/05/24 00:45:05;;;;;;;16.00;9.30;;;;;;;11.96;59.58;99761.97;4936631;28;20035;-76
2022/05/24 00:47:40;;;;;;;15.60;8.75;;;;;;;12.03;59.25;99763.25;4956718;28;20043;-77
2022/05/24 00:50:17;;;;;;;18.77;9.00;;;;;;;12.22;58.31;99774.25;4964975;28;20031;-76
2022/05/24 00:52:45;;;;;;;11.48;6.68;;;;;;;11.81;59.41;99779.47;4953843;28;20524;-76
2022/05/24 00:55:14;;;;;;;13.48;5.75;;;;;;;11.85;58.76;99773.13;4967699;28;20124;-77
2022/05/24 00:58:24;;;;;;;12.48;7.07;;;;;;;11.88;59.06;99771.13;4967453;28;20066;-77
2022/05/24 01:00:50;;;;;;;11.88;6.22;;;;;;;11.21;60.55;99780.50;4940205;28;20635;-76
2022/05/24 01:03:16;;;;;;;13.18;6.78;;;;;;;11.32;60.65;99782.47;4964931;28;20062;-76
2022/05/24 01:05:43;;;;;;;11.27;7.05;;;;;;;11.94;59.08;99788.25;4957946;28;20027;-78
2022/05/24 01:08:10;;;;;;;13.30;6.82;;;;;;;12.04;58.89;99785.88;4949973;28;20509;-77
2022/05/24 01:10:43;;;;;;;10.90;7.28;;;;;;;11.99;59.04;99785.34;4952660;28;20035;-78
2022/05/24 01:13:16;;;;;;;10.93;7.55;;;;;;;11.73;59.42;99776.47;4951509;28;20068;-78
2022/05/24 01:15:44;;;;;;;11.65;5.95;;;;;;;11.55;59.22;99775.81;4954105;28;20041;-77
2022/05/24 01:18:11;;;;;;;10.55;5.10;;;;;;;11.37;59.99;99781.25;4955965;28;20043;-77
2022/05/24 01:20:40;;;;;;;7.07;3.75;;;;;;;11.53;59.37;99791.63;4959537;28;20089;-77
2022/05/24 01:23:32;;;;;;;6.80;4.32;;;;;;;11.42;59.15;99797.53;4956529;28;20256;-77
2022/05/24 01:26:09;;;;;;;6.30;4.32;;;;;;;11.13;59.59;99801.88;4954068;28;20034;-77
2022/05/24 01:28:57;;;;;;;8.15;4.40;;;;;;;11.02;59.35;99799.91;4951524;28;20425;-76
2022/05/24 01:31:24;;;;;;;5.13;3.78;;;;;;;11.14;58.86;99805.34;4951462;28;20040;-78
2022/05/24 01:36:39;;;;;;;6.75;3.20;;;;;;;11.48;57.73;99805.94;4949993;28;20094;-76
2022/05/24 01:39:09;;;;;;;9.73;3.40;;;;;;;11.31;57.94;99813.03;4950183;28;20030;-77
2022/05/24 01:41:39;;;;;;;10.38;2.45;;;;;;;11.53;56.50;99816.94;4951643;28;20031;-77
2022/05/24 01:44:06;;;;;;;5.22;2.45;;;;;;;11.19;57.30;99826.81;4966437;28;20159;-77
2022/05/24 01:46:36;;;;;;;7.15;2.53;;;;;;;10.95;57.49;99822.13;4952125;28;20074;-78
2022/05/24 01:49:08;;;;;;;5.90;2.15;;;;;;;10.96;57.17;99823.78;4951404;28;20327;-79
2022/05/24 01:51:42;;;;;;;7.43;3.05;;;;;;;10.86;57.83;99825.28;4966985;28;20421;-80
2022/05/24 01:54:08;;;;;;;4.47;2.53;;;;;;;11.02;56.31;99826.06;4966828;28;20122;-79
2022/05/24 01:56:59;;;;;;;4.38;3.15;;;;;;;10.25;58.11;99821.69;4953525;28;20505;-79
2022/05/24 01:59:26;;;;;;;3.92;2.78;;;;;;;10.80;56.51;99825.59;4958415;28;20425;-78
2022/05/24 02:01:57;;;;;;;4.90;2.25;;;;;;;10.50;57.28;99829.00;4965692;28;20031;-77
2022/05/24 02:04:25;;;;;;;4.57;2.80;;;;;;;10.52;57.52;99824.53;4954900;28;20027;-78
2022/05/24 02:06:58;;;;;;;6.13;2.38;;;;;;;11.14;56.21;99828.88;4964651;28;20642;-78
2022/05/24 02:09:25;;;;;;;3.95;2.45;;;;;;;10.76;56.81;99826.69;4967181;28;20235;-79
2022/05/24 02:11:50;;;;;;;4.38;2.22;;;;;;;10.76;56.61;99826.69;4961688;28;20027;-78
2022/05/24 02:14:24;;;;;;;2.88;2.05;;;;;;;11.27;55.40;99829.00;4959347;28;20035;-79
2022/05/24 02:16:54;;;;;;;7.97;1.63;;;;;;;10.98;55.86;99836.78;4939602;28;20043;-77
2022/05/24 02:19:22;;;;;;;2.70;2.10;;;;;;;11.52;54.46;99833.59;4937376;28;20038;-76
2022/05/24 02:21:54;;;;;;;2.92;2.28;;;;;;;11.54;54.69;99829.09;4964554;28;20030;-78
2022/05/24 02:24:22;;;;;;;6.13;2.28;;;;;;;10.95;55.68;99826.47;4941467;28;20050;-77
2022/05/24 02:26:48;;;;;;;4.13;1.52;;;;;;;11.36;54.64;99824.03;4971053;28;20042;-79
2022/05/24 02:29:15;;;;;;;3.92;2.30;;;;;;;11.14;55.21;99821.88;4949772;28;20612;-79
2022/05/24 02:31:42;;;;;;;4.07;2.20;;;;;;;10.46;57.25;99830.13;4937749;28;20269;-79
2022/05/24 02:34:08;;;;;;;3.22;1.88;;;;;;;10.15;57.90;99828.38;4967079;28;20043;-78
2022/05/24 02:36:33;;;;;;;3.03;1.70;;;;;;;10.66;55.98;99825.50;4951708;28;20125;-80
2022/05/24 02:38:59;;;;;;;4.75;1.65;;;;;;;10.87;55.77;99828.72;4961263;28;20677;-79
2022/05/24 02:41:31;;;;;;;3.17;1.88;;;;;;;10.79;56.04;99823.88;4954397;28;20066;-77
2022/05/24 02:44:15;;;;;;;7.35;2.42;;;;;;;10.34;57.00;99831.63;4936182;28;20069;-77
2022/05/24 02:46:47;;;;;;;2.40;1.42;;;;;;;10.86;56.12;99837.47;4967875;28;20158;-78
2022/05/24 02:49:12;;;;;;;3.55;2.75;;;;;;;10.66;56.14;99841.19;4971039;28;20118;-79
2022/05/24 02:51:41;;;;;;;6.57;2.88;;;;;;;10.71;56.06;99839.19;4959142;28;20410;-79
2022/05/24 02:54:08;;;;;;;5.70;2.60;;;;;;;10.87;55.87;99850.47;4949328;28;20802;-76
2022/05/24 02:56:34;;;;;;;3.60;2.90;;;;;;;10.90;55.73;99850.28;4967063;28;20062;-79
2022/05/24 02:59:02;;;;;;;7.20;2.45;;;;;;;10.67;56.34;99853.34;4969456;28;20043;-79
2022/05/24 03:01:29;;;;;;;6.90;2.50;;;;;;;10.75;56.21;99846.75;4943645;28;20439;-78
2022/05/24 03:03:55;;;;;;;3.60;2.90;;;;;;;10.91;55.59;99856.38;4956167;28;20157;-79
2022/05/24 03:06:22;;;;;;;7.82;3.20;;;;;;;10.77;56.04;99855.34;4967155;28;20181;-78
2022/05/24 03:14:19;;;;;;;4.82;3.78;;;;;;;10.67;56.45;99884.72;4967339;28;20051;-78
2022/05/24 03:16:52;;;;;;;3.75;2.83;;;;;;;10.11;58.20;99894.72;4954453;28;20080;-77
2022/05/24 03:19:20;;;;;;;4.07;2.30;;;;;;;10.63;56.86;99887.47;4943591;28;20050;-80
2022/05/24 03:21:46;;;;;;;7.65;2.72;;;;;;;10.87;56.23;99876.59;4953521;28;20035;-78
2022/05/24 03:24:12;;;;;;;4.70;2.30;;;;;;;10.26;57.15;99877.38;4966512;28;20038;-78
2022/05/24 03:26:39;;;;;;;4.90;2.60;;;;;;;10.79;55.97;99878.78;4959908;28;20038;-78
2022/05/24 03:29:05;;;;;;;4.70;2.78;;;;;;;10.55;56.53;99881.84;4953309;28;20046;-79
2022/05/24 03:31:31;;;;;;;11.68;2.42;;;;;;;10.57;56.59;99880.00;4972058;28;20031;-77
2022/05/24 03:33:57;;;;;;;4.07;2.40;;;;;;;10.60;56.91;99890.28;4966857;28;20055;-78
2022/05/24 03:36:27;;;;;;;6.47;2.80;;;;;;;10.98;55.40;99902.97;4950981;28;20063;-79
2022/05/24 03:38:52;;;;;;;4.93;2.55;;;;;;;10.73;56.50;99900.06;4956207;28;20141;-78
2022/05/24 03:41:17;;;;;;;6.50;2.63;;;;;;;10.73;56.41;99910.50;4968442;28;20034;-76
2022/05/24 03:43:43;;;;;;;5.60;3.53;;;;;;;10.19;58.51;99916.91;4958630;28;20039;-78
2022/05/24 03:46:10;;;;;;;7.32;3.40;;;;;;;10.92;56.27;99923.41;4940320;28;20098;-78
2022/05/24 03:48:37;;;;;;;7.20;4.18;;;;;;;11.21;55.99;99914.72;4968318;28;20486;-78
2022/05/24 03:51:03;;;;;;;7.30;3.22;;;;;;;10.82;56.63;99917.84;4952761;28;20473;-78
2022/05/24 03:53:29;;;;;;;7.82;3.75;;;;;;;10.21;58.38;99909.81;4969985;28;20038;-79
2022/05/24 03:55:55;;;;;;;7.13;3.72;;;;;;;10.97;56.31;99919.59;4956367;28;20494;-79
2022/05/24 03:58:22;;;;;;;7.72;3.60;;;;;;;10.70;56.80;99918.50;4966174;28;20602;-78
2022/05/24 04:00:47;;;;;;;5.28;3.97;;;;;;;10.93;56.33;99909.38;4943623;28;20513;-78
2022/05/24 04:03:13;;;;;;;6.50;4.25;;;;;;;11.14;55.74;99920.41;4956762;28;20086;-81
2022/05/24 04:05:41;;;;;;;7.05;4.32;;;;;;;11.51;55.60;99921.72;4953179;28;20046;-77
2022/05/24 04:08:07;;;;;;;6.40;5.13;;;;;;;11.66;55.04;99931.28;4957235;28;20488;-78
2022/05/24 04:10:35;;;;;;;8.50;4.63;;;;;;;11.59;55.50;99927.31;4952123;28;20101;-79
2022/05/24 04:13:01;;;;;;;6.10;4.60;;;;;;;11.34;54.99;99924.47;4954181;28;20031;-76
2022/05/24 04:15:26;;;;;;;7.35;4.65;;;;;;;11.63;54.79;99926.22;4957688;28;20508;-78
2022/05/24 04:17:52;;;;;;;7.57;4.88;;;;;;;11.49;55.34;99925.38;4954721;28;20106;-77
2022/05/24 04:20:19;;;;;;;6.80;4.47;;;;;;;11.92;54.38;99928.91;4969953;28;20039;-77
2022/05/24 04:22:45;;;;;;;8.25;4.50;;;;;;;11.79;54.26;99927.97;4940913;28;20134;-77
2022/05/24 04:25:13;;;;;;;9.18;4.80;;;;;;;12.03;53.83;99936.09;4970014;28;20051;-78
2022/05/24 04:27:39;;;;;;;8.02;4.72;;;;;;;11.72;55.29;99932.69;4967212;28;20118;-79
2022/05/24 04:30:06;;;;;;;7.35;4.93;;;;;;;11.93;54.74;99927.13;4938401;28;20038;-80
2022/05/24 04:32:32;;;;;;;7.00;5.00;;;;;;;11.87;54.31;99929.19;4956711;28;20062;-77
2022/05/24 04:34:57;;;;;;;6.22;4.18;;;;;;;11.57;55.02;99930.97;4953021;28;20038;-77
2022/05/24 04:37:23;;;;;;;12.05;4.53;;;;;;;11.45;55.52;99938.63;4938598;28;20035;-78
2022/05/24 04:39:48;;;;;;;7.20;4.13;;;;;;;11.05;56.89;99938.28;4971151;28;20031;-79
2022/05/24 04:42:20;;;;;;;9.07;4.32;;;;;;;11.40;55.84;99948.50;4955046;28;20737;-78
2022/05/24 04:44:47;;;;;;;9.05;4.53;;;;;;;12.01;54.76;99940.59;4957793;28;20030;-80
2022/05/24 04:47:13;;;;;;;7.60;4.88;;;;;;;12.07;54.21;99941.06;4956336;28;20722;-78
2022/05/24 04:49:42;;;;;;;5.95;4.60;;;;;;;12.50;53.42;99934.94;4971707;28;20034;-78
2022/05/24 04:52:11;;;;;;;;;;;;;;;13.26;52.92;99933.56;4940280;28;20493;-78
2022/05/24 04:54:42;;;;;;;10.77;4.63;;;;;;;13.07;51.38;99934.78;4957655;28;19926;-78
2022/05/24 04:57:08;;;;;;;7.53;4.47;;;;;;;12.85;52.15;99934.50;4955645;28;20042;-77
2022/05/24 04:59:34;;;;;;;9.32;4.22;;;;;;;12.75;53.23;99938.66;4954604;28;20038;-77
2022/05/24 05:02:00;;;;;;;7.82;5.07;;;;;;;13.09;52.29;99945.16;4940464;28;20053;-78
2022/05/24 05:04:25;;;;;;;9.25;4.40;;;;;;;12.87;52.70;99936.09;4946351;28;20608;-78
2022/05/24 05:06:51;;;;;;;9.10;5.30;;;;;;;12.96;52.65;99936.41;4948903;28;20035;-78
2022/05/24 05:09:18;;;;;;;12.75;7.32;;;;;;;12.72;52.82;99941.47;4952900;28;20038;-81
2022/05/24 05:11:43;;;;;;;12.82;6.05;;;;;;;12.66;53.48;99940.88;4953875;28;20125;-80
2022/05/24 05:14:10;;;;;;;16.63;8.52;;;;;;;12.68;53.90;99949.50;4955850;28;20031;-79
2022/05/24 05:16:36;;;;;;;12.57;6.75;;;;;;;12.29;54.44;99951.06;4954433;28;20039;-78
2022/05/24 05:19:06;;;;;;;7.80;5.88;;;;;;;12.68;53.59;99946.88;4951927;28;20050;-78
2022/05/24 05:21:34;;;;;;;11.20;7.28;;;;;;;12.32;54.77;99942.16;4939184;28;20187;-79
2022/05/24 05:24:01;;;;;;;14.18;6.10;;;;;;;12.64;54.70;99953.25;4949543;28;20066;-79
2022/05/24 05:26:26;;;;;;;10.88;7.45;;;;;;;11.58;56.66;99945.75;4955434;28;20082;-80
2022/05/24 05:28:52;;;;;;;16.90;8.07;;;;;;;12.33;55.45;99945.63;4957648;28;20031;-76
2022/05/24 05:31:22;;;;;;;12.32;8.43;;;;;;;12.13;55.25;99947.69;4956398;28;20489;-77
2022/05/24 05:33:49;;;;;;;12.48;7.85;;;;;;;12.36;55.40;99948.06;4954524;28;20047;-79
2022/05/24 05:36:16;;;;;;;14.25;9.05;;;;;;;12.38;55.32;99957.53;4970067;28;20265;-79
2022/05/24 05:38:45;;;;;;;16.75;8.60;;;;;;;13.02;54.03;99957.84;4954229;28;20047;-76
2022/05/24 05:41:17;;;;;;;30.10;13.77;;;;;;;13.05;53.96;99949.78;4938348;28;20519;-79
2022/05/24 05:43:43;;;;;;;17.75;10.73;;;;;;;12.82;54.37;99955.66;4952906;28;20081;-79
2022/05/24 05:46:10;;;;;;;18.23;10.35;;;;;;;12.75;54.58;99959.63;4954324;28;20498;-78
2022/05/24 05:48:37;;;;;;;16.02;10.35;;;;;;;12.60;54.97;99958.78;4951184;28;20035;-79
2022/05/24 05:51:03;;;;;;;19.48;10.77;;;;;;;12.60;55.17;99961.41;4949848;28;20129;-78
2022/05/24 05:53:29;;;;;;;16.17;10.35;;;;;;;12.38;55.91;99972.38;4951294;28;20054;-79
2022/05/24 05:55:56;;;;;;;19.05;10.18;;;;;;;12.88;54.94;99976.25;4936617;28;20054;-77
2022/05/24 05:58:22;;;;;;;18.35;10.35;;;;;;;12.72;56.07;99973.78;4953938;28;20070;-78
2022/05/24 06:00:50;;;;;;;19.85;10.50;;;;;;;12.99;55.37;99984.28;4968607;28;20042;-80
2022/05/24 06:03:17;;;;;;;18.40;10.55;;;;;;;12.78;54.98;99986.50;4958446;28;20043;-78
2022/05/24 06:05:45;;;;;;;18.35;10.52;;;;;;;13.27;54.54;99978.09;4948516;28;20086;-79
2022/05/24 06:08:12;;;;;;;21.10;11.73;;;;;;;13.04;54.10;99987.44;4968931;28;20070;-79
2022/05/24 06:10:38;;;;;;;19.13;11.93;;;;;;;13.01;54.57;99992.91;4975433;28;20095;-76
2022/05/24 06:13:04;;;;;;;16.20;11.57;;;;;;;13.13;54.58;99993.03;4974150;28;20212;-77
2022/05/24 06:15:31;;;;;;;18.40;12.48;;;;;;;13.44;53.69;99992.72;4974742;28;20065;-79
2022/05/24 06:17:57;;;;;;;18.55;12.15;;;;;;;13.19;54.10;99996.09;4957444;28;20106;-78
2022/05/24 06:20:27;;;;;;;19.20;11.20;;;;;;;13.55;53.68;100001.66;4968238;28;20070;-80
2022/05/24 06:22:53;;;;;;;15.75;11.35;;;;;;;13.91;52.34;100003.63;4935122;28;20051;-80
2022/05/24 06:25:22;;;;;;;20.60;11.15;;;;;;;13.83;53.34;100001.53;4967089;28;20390;-79
2022/05/24 06:27:52;;;;;;;18.52;12.65;;;;;;;13.92;52.50;99989.56;4951556;28;20093;-81
2022/05/24 06:30:20;;;;;;;23.70;12.93;;;;;;;13.01;53.59;99986.81;4954726;28;20042;-79
2022/05/24 06:32:46;;;;;;;21.35;12.27;;;;;;;13.75;51.73;99985.44;4943702;28;20078;-79
2022/05/24 06:35:12;;;;;;;21.10;11.25;;;;;;;14.11;51.56;99981.25;4955581;28;20138;-79
2022/05/24 06:37:40;;;;;;;15.48;11.38;;;;;;;13.62;51.75;99982.81;4949299;28;20577;-77
2022/05/24 06:40:08;;;;;;;18.35;11.27;;;;;;;13.25;53.40;99979.97;4952689;28;20618;-79
2022/05/24 06:42:34;;;;;;;13.25;10.30;;;;;;;13.75;52.04;99987.25;4954375;28;20035;-79
2022/05/24 06:45:01;;;;;;;16.58;10.27;;;;;;;13.20;52.93;99973.34;4953615;28;20034;-78
2022/05/24 06:47:27;;;;;;;17.58;10.50;;;;;;;15.61;48.32;99976.66;4964405;28;20039;-78
2022/05/24 06:49:53;;;;;;;14.18;9.55;;;;;;;17.38;45.36;99974.13;4965887;28;20867;-77
2022/05/24 06:52:19;;;;;;;11.23;8.68;;;;;;;17.58;41.76;99978.63;4957289;28;20113;-78
2022/05/24 06:54:44;;;;;;;12.45;8.02;;;;;;;18.68;40.69;99988.63;4957201;28;20039;-79
2022/05/24 06:57:10;;;;;;;12.32;8.60;;;;;;;17.95;40.53;99995.81;4936720;28;20047;-78
2022/05/24 07:02:26;;;;;;;11.40;8.35;;;;;;;17.81;41.41;100008.41;4971568;28;20070;-79
2022/05/24 07:05:13;;;;;;;11.20;7.10;;;;;;;15.97;43.47;100002.88;4965008;28;20078;-78
2022/05/24 07:07:39;;;;;;;7.38;6.43;;;;;;;14.71;45.45;99992.88;4950898;28;20051;-78
2022/05/24 07:10:08;;;;;;;10.02;6.07;;;;;;;14.83;45.73;99989.34;4969757;28;20039;-79
2022/05/24 07:12:34;;;;;;;11.23;7.22;;;;;;;14.30;47.41;99983.44;4958452;28;20039;-79
2022/05/24 07:14:59;;;;;;;8.20;6.38;;;;;;;14.24;47.99;100002.28;4958107;28;20547;-79
2022/05/24 07:17:25;;;;;;;10.50;6.45;;;;;;;13.96;48.79;100016.47;4951616;28;20130;-78
2022/05/24 07:19:51;;;;;;;10.30;6.70;;;;;;;13.85;48.72;100025.91;4956159;28;20054;-78
2022/05/24 07:22:18;;;;;;;8.32;6.55;;;;;;;13.39;50.15;100023.69;4936069;28;20123;-77
2022/05/24 07:24:43;;;;;;;9.48;6.22;;;;;;;13.70;49.22;100037.44;4943174;28;20031;-79
2022/05/24 07:27:11;;;;;;;15.27;6.13;;;;;;;13.72;49.54;100046.06;4944524;28;20134;-80
2022/05/24 07:29:37;;;;;;;9.48;6.50;;;;;;;13.52;49.79;100049.97;4953630;28;20097;-78
2022/05/24 07:32:04;;;;;;;8.25;5.90;;;;;;;13.08;50.04;100067.63;4944610;28;20035;-78
2022/05/24 07:34:31;;;;;;;8.35;4.97;;;;;;;12.64;51.90;100068.59;4955289;28;20172;-81
2022/05/24 07:36:57;;;;;;;8.52;4.60;;;;;;;13.22;50.12;100079.03;4958927;28;20038;-78
2022/05/24 07:39:23;;;;;;;9.23;4.97;;;;;;;12.42;51.99;100084.81;4971795;28;20109;-78
2022/05/24 07:45:48;;;;;;;7.72;5.68;;;;;;;12.23;53.77;100092.06;4967772;28;20502;-78
2022/05/24 07:47:35;;;;;;;11.57;6.90;;;;;;;12.57;53.83;100103.97;4969947;28;20058;-75
2022/05/24 07:50:01;;;;;;;8.93;5.82;;;;;;;11.97;55.44;100107.53;4967602;28;20054;-78
2022/05/24 07:52:26;;;;;;;14.25;6.65;;;;;;;12.09;54.41;100108.63;4955033;28;20046;-76
2022/05/24 07:54:52;;;;;;;10.73;6.70;;;;;;;11.99;55.72;100115.31;4948900;28;20623;-76
2022/05/24 07:57:19;;;;;;;12.55;6.68;;;;;;;12.20;55.09;100111.44;4953805;28;20042;-78
2022/05/24 07:59:47;;;;;;;12.23;7.22;;;;;;;11.98;56.56;100121.50;4969849;28;20561;-76
2022/05/24 08:02:17;;;;;;;12.98;7.88;;;;;;;11.92;56.32;100121.84;4955568;28;20049;-75
2022/05/24 08:04:44;;;;;;;15.48;9.05;;;;;;;11.90;57.18;100123.69;4973033;28;20031;-75
2022/05/24 08:07:10;;;;;;;16.15;8.30;;;;;;;12.20;57.16;100119.31;4954552;28;20059;-78
2022/05/24 08:09:36;;;;;;;15.90;9.15;;;;;;;12.25;57.06;100125.09;4966629;28;20050;-77
2022/05/24 08:12:02;;;;;;;13.10;8.75;;;;;;;12.65;55.95;100121.88;4950102;28;20035;-78
2022/05/24 08:14:27;;;;;;;15.38;9.93;;;;;;;12.34;55.96;100130.75;4968599;28;20047;-78
2022/05/24 08:16:53;;;;;;;19.33;8.90;;;;;;;12.57;55.10;100139.84;4964742;28;20506;-77
2022/05/24 08:19:18;;;;;;;15.40;9.50;;;;;;;12.54;55.25;100125.16;4950342;28;20031;-78
2022/05/24 08:21:44;;;;;;;16.13;10.48;;;;;;;13.05;54.41;100124.72;4948953;28;20056;-77
2022/05/24 08:24:09;;;;;;;18.08;10.73;;;;;;;12.99;54.81;100133.78;4954578;28;20058;-79
2022/05/24 08:26:36;;;;;;;25.17;12.43;;;;;;;12.79;54.77;100144.66;4965427;28;20035;-77
2022/05/24 08:29:03;;;;;;;20.13;11.32;;;;;;;13.07;54.54;100139.41;4949962;28;20437;-77
2022/05/24 08:31:29;;;;;;;22.27;12.65;;;;;;;13.06;54.43;100135.09;4953315;28;20069;-77
2022/05/24 08:33:54;;;;;;;21.60;13.75;;;;;;;13.16;54.33;100139.75;4963177;28;20466;-78
2022/05/24 08:36:20;;;;;;;23.95;14.13;;;;;;;13.35;53.35;100129.81;4941515;28;20038;-76
2022/05/24 08:38:46;;;;;;;28.88;12.55;;;;;;;12.93;53.42;100136.78;4953684;28;20747;-77
2022/05/24 08:41:39;;;;;;;19.13;11.05;;;;;;;12.92;54.18;100135.13;4953778;28;20069;-77
2022/05/24 08:50:09;;;;;;;16.85;9.75;;;;;;;14.16;50.77;100134.19;4954780;28;20122;-78
2022/05/24 08:52:57;;;;;;;20.67;10.45;;;;;;;14.18;50.43;100131.47;4941490;28;20481;-77
2022/05/24 08:55:24;;;;;;;14.10;9.63;;;;;;;13.62;50.94;100144.75;4967320;28;20050;-76
2022/05/24 08:57:56;;;;;;;19.42;9.68;;;;;;;14.40;49.78;100144.00;4968379;28;20129;-79
2022/05/24 09:00:25;;;;;;;22.27;11.30;;;;;;;14.75;50.04;100160.03;4937189;28;20039;-77
2022/05/24 09:02:51;;;;;;;13.43;9.57;;;;;;;13.40;51.46;100164.47;4967867;28;20585;-77
2022/05/24 09:05:22;;;;;;;12.07;8.43;;;;;;;13.82;50.03;100157.44;4954637;28;20102;-78
2022/05/24 09:08:03;;;;;;;12.40;9.30;;;;;;;13.87;49.34;100157.13;4968210;28;20051;-77
2022/05/24 09:10:47;;;;;;;15.60;9.20;;;;;;;13.68;49.72;100170.63;4971231;28;20331;-78
2022/05/24 09:13:40;;;;;;;15.60;9.50;;;;;;;13.31;50.42;100184.25;4960820;28;20058;-77
2022/05/24 09:16:12;;;;;;;15.13;8.57;;;;;;;13.62;50.28;100177.09;4961164;28;20525;-78
2022/05/24 09:18:53;;;;;;;9.88;7.35;;;;;;;13.99;49.60;100173.91;4959204;28;20047;-78
2022/05/24 09:21:22;;;;;;;14.17;8.03;;;;;;;13.42;50.14;100178.34;4975722;28;20042;-77
2022/05/24 09:23:58;;;;;;;11.50;8.00;;;;;;;14.00;48.86;100168.53;4976564;28;20291;-74
2022/05/24 09:26:24;;;;;;;16.95;8.52;;;;;;;13.58;49.22;100169.53;4968797;28;20039;-78
2022/05/24 09:28:55;;;;;;;12.90;7.35;;;;;;;13.68;49.26;100171.47;4965594;28;20046;-79
2022/05/24 09:31:44;;;;;;;12.65;7.43;;;;;;;14.04;48.77;100167.38;4975903;28;20039;-77
2022/05/24 09:34:19;;;;;;;12.00;7.47;;;;;;;13.89;48.09;100161.34;4979727;28;21714;-77
2022/05/24 09:36:53;;;;;;;15.35;8.32;;;;;;;14.20;47.77;100161.13;4978585;28;20046;-78
2022/05/24 09:39:23;;;;;;;17.63;8.40;;;;;;;14.83;47.10;100176.13;4961606;28;20074;-78
2022/05/24 09:42:03;;;;;;;14.70;8.02;;;;;;;14.55;48.15;100177.19;4961559;28;20102;-76
2022/05/24 09:44:46;;;;;;;19.73;9.90;;;;;;;15.89;44.84;100173.88;4975889;28;20038;-76
2022/05/24 09:47:37;;;;;;;18.70;7.65;;;;;;;15.93;44.69;100167.44;4974946;28;20443;-77
2022/05/24 09:50:18;;;;;;;10.38;7.20;;;;;;;15.93;44.46;100164.81;4949453;28;20585;-78
2022/05/24 09:53:06;;;;;;;9.63;6.15;;;;;;;15.55;43.37;100178.97;4971061;28;20505;-78
2022/05/24 09:55:46;;;;;;;15.30;7.90;;;;;;;14.89;45.72;100180.97;4960507;28;20043;-75
2022/05/24 09:58:30;;;;;;;12.82;6.65;;;;;;;14.26;46.62;100193.09;4956290;28;20494;-78
2022/05/24 10:00:59;;;;;;;11.68;6.70;;;;;;;13.91;46.66;100182.25;4971965;28;20153;-78
2022/05/24 10:03:47;;;;;;;17.15;6.78;;;;;;;14.39;46.15;100194.88;4976664;28;20049;-77
2022/05/24 10:06:22;;;;;;;11.02;6.80;;;;;;;15.20;44.55;100188.53;4979783;28;20077;-77
2022/05/24 10:08:52;;;;;;;11.25;6.65;;;;;;;14.41;45.67;100188.63;4970085;28;20058;-79
2022/05/24 10:11:27;;;;;;;19.80;7.00;;;;;;;13.51;47.65;100206.63;4973735;28;20053;-78
2022/05/24 10:14:00;;;;;;;9.55;7.03;;;;;;;14.26;46.88;100202.78;4955627;28;20045;-76
2022/05/24 10:16:30;;;;;;;15.52;6.82;;;;;;;14.34;46.20;100208.34;4972617;28;20039;-78
2022/05/24 10:19:08;;;;;;;13.00;6.20;;;;;;;14.91;45.25;100199.28;4971566;28;20050;-77
2022/05/24 10:21:56;;;;;;;11.10;7.32;;;;;;;15.12;44.70;100207.47;4958916;28;20137;-78
2022/05/24 10:24:33;;;;;;;9.88;6.65;;;;;;;14.06;44.16;100218.06;4943154;28;20497;-77
2022/05/24 10:27:13;;;;;;;10.35;6.85;;;;;;;13.94;45.42;100214.44;4972736;28;20035;-77
2022/05/24 10:29:51;;;;;;;11.98;5.93;;;;;;;13.97;45.20;100212.56;4970056;28;20039;-76
2022/05/24 10:39:21;;;;;;;10.70;5.68;;;;;;;16.74;39.72;100209.78;4956269;28;20050;-77
2022/05/24 10:42:18;;;;;;;9.93;5.45;;;;;;;17.39;38.27;100206.44;4930873;28;20062;-77
2022/05/24 10:45:00;;;;;;;7.50;5.30;;;;;;;15.70;40.61;100207.78;4969964;28;20043;-77
2022/05/24 10:47:29;;;;;;;9.50;5.45;;;;;;;17.03;39.30;100211.03;4959127;28;20126;-78
2022/05/24 10:50:26;;;;;;;7.97;5.47;;;;;;;16.86;39.02;100210.66;4963969;28;20046;-78
2022/05/24 10:53:05;;;;;;;9.32;5.35;;;;;;;17.14;36.67;100222.56;4955990;28;20043;-76
2022/05/24 10:55:41;;;;;;;6.57;4.40;;;;;;;18.38;35.64;100224.94;4954950;28;20047;-77
2022/05/24 10:58:11;;;;;;;7.25;3.70;;;;;;;19.21;34.14;100220.56;4968339;28;20066;-78
2022/05/24 11:00:39;;;;;;;5.25;3.80;;;;;;;18.21;34.12;100210.50;4957772;28;20031;-77
2022/05/24 11:03:16;;;;;;;7.97;3.90;;;;;;;18.16;35.76;100217.91;4961527;28;20715;-78
2022/05/24 11:05:45;;;;;;;7.53;2.92;;;;;;;18.95;35.90;100217.53;4960158;28;20034;-78
2022/05/24 11:08:32;;;;;;;5.00;2.65;;;;;;;18.01;33.59;100217.41;4980754;28;20055;-79
2022/05/24 11:11:04;;;;;;;11.50;2.70;;;;;;;18.15;33.90;100230.31;4960393;28;20042;-78
2022/05/24 11:13:51;;;;;;;10.93;2.60;;;;;;;16.97;35.95;100239.69;4958331;28;20043;-75
2022/05/24 11:16:26;;;;;;;4.18;2.88;;;;;;;17.86;33.78;100230.03;4957575;28;20414;-78
2022/05/24 11:18:51;;;;;;;5.45;3.03;;;;;;;18.15;35.13;100237.41;4974544;28;20038;-78
2022/05/24 11:21:27;;;;;;;6.25;2.65;;;;;;;17.71;33.52;100240.03;4967433;28;20035;-80
2022/05/24 11:23:58;;;;;;;5.60;2.47;;;;;;;16.06;36.38;100256.16;4967952;28;20409;-80
2022/05/24 11:26:31;;;;;;;18.52;3.85;;;;;;;14.68;39.50;100269.22;4946117;28;20556;-77
2022/05/24 11:29:09;;;;;;;5.13;2.92;;;;;;;15.04;40.40;100279.06;4962164;28;20066;-79
2022/05/24 11:31:38;;;;;;;5.18;2.50;;;;;;;15.15;42.79;100294.97;4965157;28;20506;-79
2022/05/24 11:34:34;;;;;;;3.70;2.17;;;;;;;15.65;42.18;100294.22;4956502;28;20097;-78
2022/05/24 11:37:13;;;;;;;3.22;1.45;;;;;;;15.37;41.27;100296.13;4949941;28;20042;-75
2022/05/24 11:39:44;;;;;;;3.83;1.73;;;;;;;14.71;42.00;100306.69;4974209;28;20045;-79
2022/05/24 11:42:34;;;;;;;2.17;0.57;;;;;;;11.89;45.97;100332.34;4971825;28;20656;-77
2022/05/24 11:45:20;;;;;;;1.27;0.40;;;;;;;12.25;45.47;100337.34;4958764;28;20049;-77
2022/05/24 11:47:48;;;;;;;1.00;0.22;;;;;;;12.33;46.38;100333.44;4963703;28;20038;-76
2022/05/24 11:50:32;;;;;;;2.97;0.30;;;;;;;12.14;46.55;100346.72;4960851;28;20035;-78
2022/05/24 11:53:08;;;;;;;0.70;0.10;;;;;;;12.13;47.31;100356.34;4971176;28;20055;-76
2022/05/24 11:55:55;;;;;;;2.33;0.10;;;;;;;12.03;47.23;100365.63;4956563;28;20064;-77
2022/05/24 11:58:20;;;;;;;1.65;0.10;;;;;;;12.33;46.12;100351.78;4962140;28;20154;-77
2022/05/24 12:01:02;;;;;;;1.20;0.10;;;;;;;14.25;44.40;100359.59;4970389;28;20042;-78
2022/05/24 12:09:21;;;;;;;1.73;0.38;;;;;;;17.27;38.40;100350.03;4974484;28;20493;-78
2022/05/24 12:11:48;;;;;;;1.38;0.40;;;;;;;15.54;39.43;100352.91;4976835;28;20047;-76